sensor_id;sensor_type;location;lat;lon;timestamp;P1;durP1;ratioP1;P2;durP2;ratioP2
40170;SDS011;37650;52.790;18.268;2022-11-15T00:01:51;82.80;;;45.20;;
40170;SDS011;37650;52.790;18.268;2022-11-15T00:05:33;72.90;;;42.70;;
40170;SDS011;37650;52.790;18.268;2022-11-15T00:09:15;85.30;;;49.50;;
40170;SDS011;37650;52.790;18.268;2022-11-15T00:12:55;78.10;;;44.30;;
40170;SDS011;37650;52.790;18.268;2022-11-15T00:16:35;78.20;;;39.20;;
40170;SDS011;37650;52.790;18.268;2022-11-15T00:20:16;86.00;;;46.70;;
40170;SDS011;37650;52.790;18.268;2022-11-15T00:23:58;86.10;;;45.60;;
40170;SDS011;37650;52.790;18.268;2022-11-15T00:27:38;75.70;;;42.80;;
40170;SDS011;37650;52.790;18.268;2022-11-15T00:31:18;69.50;;;39.30;;
40170;SDS011;37650;52.790;18.268;2022-11-15T00:34:58;72.00;;;39.40;;
40170;SDS011;37650;52.790;18.268;2022-11-15T00:38:39;86.10;;;44.60;;
40170;SDS011;37650;52.790;18.268;2022-11-15T00:42:20;73.60;;;37.10;;
40170;SDS011;37650;52.790;18.268;2022-11-15T00:46:00;72.60;;;41.90;;
40170;SDS011;37650;52.790;18.268;2022-11-15T00:49:41;79.20;;;42.00;;
40170;SDS011;37650;52.790;18.268;2022-11-15T00:53:21;84.40;;;42.20;;
40170;SDS011;37650;52.790;18.268;2022-11-15T00:57:02;82.10;;;41.90;;
40170;SDS011;37650;52.790;18.268;2022-11-15T01:00:42;80.60;;;44.00;;
40170;SDS011;37650;52.790;18.268;2022-11-15T01:04:15;73.60;;;41.50;;
40170;SDS011;37650;52.790;18.268;2022-11-15T01:07:55;75.90;;;39.40;;
40170;SDS011;37650;52.790;18.268;2022-11-15T01:11:36;69.70;;;39.30;;
40170;SDS011;37650;52.790;18.268;2022-11-15T01:15:15;69.80;;;38.70;;
40170;SDS011;37650;52.790;18.268;2022-11-15T01:18:55;71.40;;;38.50;;
40170;SDS011;37650;52.790;18.268;2022-11-15T01:22:35;75.30;;;41.40;;
40170;SDS011;37650;52.790;18.268;2022-11-15T01:26:15;72.20;;;39.80;;
40170;SDS011;37650;52.790;18.268;2022-11-15T01:29:55;74.20;;;42.50;;
40170;SDS011;37650;52.790;18.268;2022-11-15T01:33:35;70.40;;;38.20;;
40170;SDS011;37650;52.790;18.268;2022-11-15T01:37:16;75.60;;;40.20;;
40170;SDS011;37650;52.790;18.268;2022-11-15T01:40:56;65.20;;;37.90;;
40170;SDS011;37650;52.790;18.268;2022-11-15T01:44:51;70.20;;;38.20;;
40170;SDS011;37650;52.790;18.268;2022-11-15T01:48:34;69.50;;;36.40;;
40170;SDS011;37650;52.790;18.268;2022-11-15T01:52:16;77.90;;;42.10;;
40170;SDS011;37650;52.790;18.268;2022-11-15T01:56:01;80.20;;;42.50;;
40170;SDS011;37650;52.790;18.268;2022-11-15T01:59:44;81.20;;;43.10;;
40170;SDS011;37650;52.790;18.268;2022-11-15T02:03:29;76.10;;;40.10;;
40170;SDS011;37650;52.790;18.268;2022-11-15T02:07:17;82.50;;;42.40;;
40170;SDS011;37650;52.790;18.268;2022-11-15T02:10:59;73.20;;;37.10;;
40170;SDS011;37650;52.790;18.268;2022-11-15T02:14:39;74.30;;;37.30;;
40170;SDS011;37650;52.790;18.268;2022-11-15T02:30:33;100.40;;;50.80;;
40170;SDS011;37650;52.790;18.268;2022-11-15T02:34:30;80.80;;;40.60;;
40170;SDS011;37650;52.790;18.268;2022-11-15T02:42:55;69.00;;;37.10;;
40170;SDS011;37650;52.790;18.268;2022-11-15T02:47:00;69.20;;;35.70;;
40170;SDS011;37650;52.790;18.268;2022-11-15T02:50:54;56.20;;;33.50;;
40170;SDS011;37650;52.790;18.268;2022-11-15T02:54:35;68.20;;;34.30;;
40170;SDS011;37650;52.790;18.268;2022-11-15T03:17:30;61.40;;;31.90;;
40170;SDS011;37650;52.790;18.268;2022-11-15T03:21:15;69.10;;;36.50;;
40170;SDS011;37650;52.790;18.268;2022-11-15T03:25:00;65.90;;;35.50;;
40170;SDS011;37650;52.790;18.268;2022-11-15T03:28:50;65.50;;;34.70;;
40170;SDS011;37650;52.790;18.268;2022-11-15T03:32:41;66.00;;;35.30;;
40170;SDS011;37650;52.790;18.268;2022-11-15T03:36:34;58.80;;;32.50;;
40170;SDS011;37650;52.790;18.268;2022-11-15T03:40:16;66.20;;;30.10;;
40170;SDS011;37650;52.790;18.268;2022-11-15T03:44:11;68.20;;;35.70;;
40170;SDS011;37650;52.790;18.268;2022-11-15T03:48:10;64.90;;;36.50;;
40170;SDS011;37650;52.790;18.268;2022-11-15T03:51:56;66.20;;;36.60;;
40170;SDS011;37650;52.790;18.268;2022-11-15T03:55:37;74.80;;;37.20;;
40170;SDS011;37650;52.790;18.268;2022-11-15T03:59:17;72.10;;;36.80;;
40170;SDS011;37650;52.790;18.268;2022-11-15T04:02:57;73.30;;;37.00;;
40170;SDS011;37650;52.790;18.268;2022-11-15T04:06:38;73.90;;;37.40;;
40170;SDS011;37650;52.790;18.268;2022-11-15T04:10:18;65.70;;;33.80;;
40170;SDS011;37650;52.790;18.268;2022-11-15T04:13:58;69.50;;;36.00;;
40170;SDS011;37650;52.790;18.268;2022-11-15T04:17:39;58.60;;;31.90;;
40170;SDS011;37650;52.790;18.268;2022-11-15T04:21:21;72.30;;;37.90;;
40170;SDS011;37650;52.790;18.268;2022-11-15T04:25:21;68.00;;;36.90;;
40170;SDS011;37650;52.790;18.268;2022-11-15T04:29:01;66.40;;;36.30;;
40170;SDS011;37650;52.790;18.268;2022-11-15T04:33:00;61.10;;;32.00;;
40170;SDS011;37650;52.790;18.268;2022-11-15T04:36:40;76.10;;;37.00;;
40170;SDS011;37650;52.790;18.268;2022-11-15T04:40:39;72.50;;;36.40;;
40170;SDS011;37650;52.790;18.268;2022-11-15T04:44:19;72.20;;;36.80;;
40170;SDS011;37650;52.790;18.268;2022-11-15T04:47:59;58.90;;;31.10;;
40170;SDS011;37650;52.790;18.268;2022-11-15T04:51:39;71.70;;;36.30;;
40170;SDS011;37650;52.790;18.268;2022-11-15T04:55:19;71.70;;;36.80;;
40170;SDS011;37650;52.790;18.268;2022-11-15T04:58:59;59.20;;;30.50;;
40170;SDS011;37650;52.790;18.268;2022-11-15T05:02:40;70.10;;;35.60;;
40170;SDS011;37650;52.790;18.268;2022-11-15T05:06:39;71.90;;;34.40;;
40170;SDS011;37650;52.790;18.268;2022-11-15T05:10:19;68.60;;;35.50;;
40170;SDS011;37650;52.790;18.268;2022-11-15T05:13:59;82.90;;;37.50;;
40170;SDS011;37650;52.790;18.268;2022-11-15T05:17:39;55.40;;;30.80;;
40170;SDS011;37650;52.790;18.268;2022-11-15T05:21:20;66.60;;;34.60;;
40170;SDS011;37650;52.790;18.268;2022-11-15T05:25:00;68.70;;;34.10;;
40170;SDS011;37650;52.790;18.268;2022-11-15T05:28:40;64.00;;;35.90;;
40170;SDS011;37650;52.790;18.268;2022-11-15T05:32:20;72.30;;;36.30;;
40170;SDS011;37650;52.790;18.268;2022-11-15T05:36:02;70.10;;;38.20;;
40170;SDS011;37650;52.790;18.268;2022-11-15T05:39:47;86.80;;;43.40;;
40170;SDS011;37650;52.790;18.268;2022-11-15T05:43:27;68.50;;;37.00;;
40170;SDS011;37650;52.790;18.268;2022-11-15T05:47:11;75.90;;;38.20;;
40170;SDS011;37650;52.790;18.268;2022-11-15T05:50:55;63.70;;;33.90;;
40170;SDS011;37650;52.790;18.268;2022-11-15T05:54:36;76.20;;;37.20;;
40170;SDS011;37650;52.790;18.268;2022-11-15T05:58:18;73.40;;;34.10;;
40170;SDS011;37650;52.790;18.268;2022-11-15T06:02:00;71.20;;;35.80;;
40170;SDS011;37650;52.790;18.268;2022-11-15T06:05:40;55.80;;;31.40;;
40170;SDS011;37650;52.790;18.268;2022-11-15T06:09:20;69.40;;;36.20;;
40170;SDS011;37650;52.790;18.268;2022-11-15T06:13:00;48.90;;;28.50;;
40170;SDS011;37650;52.790;18.268;2022-11-15T06:16:43;83.50;;;37.70;;
40170;SDS011;37650;52.790;18.268;2022-11-15T06:20:24;54.30;;;33.90;;
40170;SDS011;37650;52.790;18.268;2022-11-15T06:24:05;60.50;;;31.00;;
40170;SDS011;37650;52.790;18.268;2022-11-15T06:27:50;51.90;;;30.70;;
40170;SDS011;37650;52.790;18.268;2022-11-15T06:31:30;57.70;;;32.40;;
40170;SDS011;37650;52.790;18.268;2022-11-15T06:35:11;53.80;;;32.20;;
40170;SDS011;37650;52.790;18.268;2022-11-15T06:38:52;48.50;;;28.10;;
40170;SDS011;37650;52.790;18.268;2022-11-15T06:42:33;60.40;;;34.80;;
40170;SDS011;37650;52.790;18.268;2022-11-15T06:46:13;64.50;;;35.10;;
40170;SDS011;37650;52.790;18.268;2022-11-15T06:49:53;58.00;;;35.20;;
40170;SDS011;37650;52.790;18.268;2022-11-15T06:53:33;69.20;;;37.10;;
40170;SDS011;37650;52.790;18.268;2022-11-15T06:57:14;58.10;;;32.80;;
40170;SDS011;37650;52.790;18.268;2022-11-15T07:00:54;44.10;;;28.20;;
40170;SDS011;37650;52.790;18.268;2022-11-15T07:04:37;58.00;;;29.60;;
40170;SDS011;37650;52.790;18.268;2022-11-15T07:08:17;57.90;;;29.90;;
40170;SDS011;37650;52.790;18.268;2022-11-15T07:11:58;57.60;;;33.60;;
40170;SDS011;37650;52.790;18.268;2022-11-15T07:15:39;119.80;;;57.80;;
40170;SDS011;37650;52.790;18.268;2022-11-15T07:19:19;60.50;;;32.60;;
40170;SDS011;37650;52.790;18.268;2022-11-15T07:23:00;74.70;;;35.60;;
40170;SDS011;37650;52.790;18.268;2022-11-15T07:26:43;65.10;;;35.20;;
40170;SDS011;37650;52.790;18.268;2022-11-15T07:30:24;62.30;;;36.10;;
40170;SDS011;37650;52.790;18.268;2022-11-15T07:34:05;55.00;;;31.70;;
40170;SDS011;37650;52.790;18.268;2022-11-15T07:37:52;41.40;;;26.20;;
40170;SDS011;37650;52.790;18.268;2022-11-15T07:41:39;42.60;;;28.20;;
40170;SDS011;37650;52.790;18.268;2022-11-15T07:45:20;59.50;;;40.80;;
40170;SDS011;37650;52.790;18.268;2022-11-15T07:49:00;52.10;;;30.90;;
40170;SDS011;37650;52.790;18.268;2022-11-15T07:52:42;106.50;;;46.60;;
40170;SDS011;37650;52.790;18.268;2022-11-15T07:56:25;92.80;;;48.90;;
40170;SDS011;37650;52.790;18.268;2022-11-15T08:00:06;75.50;;;40.00;;
40170;SDS011;37650;52.790;18.268;2022-11-15T08:03:47;111.30;;;50.50;;
40170;SDS011;37650;52.790;18.268;2022-11-15T08:07:30;90.20;;;41.70;;
40170;SDS011;37650;52.790;18.268;2022-11-15T08:11:11;73.10;;;40.70;;
40170;SDS011;37650;52.790;18.268;2022-11-15T08:14:51;55.20;;;33.70;;
40170;SDS011;37650;52.790;18.268;2022-11-15T08:18:31;51.60;;;31.40;;
40170;SDS011;37650;52.790;18.268;2022-11-15T08:22:11;49.00;;;31.40;;
40170;SDS011;37650;52.790;18.268;2022-11-15T08:25:51;69.30;;;35.80;;
40170;SDS011;37650;52.790;18.268;2022-11-15T08:29:31;60.10;;;32.60;;
40170;SDS011;37650;52.790;18.268;2022-11-15T08:33:12;80.80;;;40.20;;
40170;SDS011;37650;52.790;18.268;2022-11-15T08:36:53;82.60;;;42.70;;
40170;SDS011;37650;52.790;18.268;2022-11-15T08:40:33;77.10;;;41.70;;
40170;SDS011;37650;52.790;18.268;2022-11-15T08:44:13;50.10;;;29.20;;
40170;SDS011;37650;52.790;18.268;2022-11-15T08:47:53;53.50;;;33.30;;
40170;SDS011;37650;52.790;18.268;2022-11-15T08:51:33;58.80;;;32.60;;
40170;SDS011;37650;52.790;18.268;2022-11-15T08:55:12;54.80;;;32.50;;
40170;SDS011;37650;52.790;18.268;2022-11-15T08:58:52;81.90;;;39.90;;
40170;SDS011;37650;52.790;18.268;2022-11-15T09:02:32;76.40;;;37.90;;
40170;SDS011;37650;52.790;18.268;2022-11-15T09:06:12;75.50;;;40.80;;
40170;SDS011;37650;52.790;18.268;2022-11-15T09:09:52;82.10;;;41.90;;
40170;SDS011;37650;52.790;18.268;2022-11-15T09:13:33;72.20;;;37.80;;
40170;SDS011;37650;52.790;18.268;2022-11-15T09:17:15;63.40;;;35.30;;
40170;SDS011;37650;52.790;18.268;2022-11-15T09:20:56;68.10;;;37.70;;
40170;SDS011;37650;52.790;18.268;2022-11-15T09:24:37;85.70;;;44.20;;
40170;SDS011;37650;52.790;18.268;2022-11-15T09:28:17;67.80;;;38.00;;
40170;SDS011;37650;52.790;18.268;2022-11-15T09:31:57;62.90;;;38.30;;
40170;SDS011;37650;52.790;18.268;2022-11-15T09:35:37;67.80;;;37.80;;
40170;SDS011;37650;52.790;18.268;2022-11-15T09:39:17;59.70;;;33.40;;
40170;SDS011;37650;52.790;18.268;2022-11-15T09:43:05;94.10;;;46.80;;
40170;SDS011;37650;52.790;18.268;2022-11-15T10:00:53;89.00;;;46.00;;
40170;SDS011;37650;52.790;18.268;2022-11-15T10:04:15;78.00;;;45.00;;
40170;SDS011;37650;52.790;18.268;2022-11-15T10:07:46;81.20;;;44.70;;
40170;SDS011;37650;52.790;18.268;2022-11-15T10:11:16;83.30;;;43.80;;
40170;SDS011;37650;52.790;18.268;2022-11-15T10:14:41;86.90;;;48.20;;
40170;SDS011;37650;52.790;18.268;2022-11-15T10:21:40;95.20;;;49.80;;
40170;SDS011;37650;52.790;18.268;2022-11-15T10:28:43;71.60;;;39.00;;
40170;SDS011;37650;52.790;18.268;2022-11-15T10:32:05;69.40;;;40.60;;
40170;SDS011;37650;52.790;18.268;2022-11-15T10:35:27;64.30;;;36.70;;
40170;SDS011;37650;52.790;18.268;2022-11-15T10:42:26;68.30;;;39.90;;
40170;SDS011;37650;52.790;18.268;2022-11-15T10:45:49;50.80;;;33.50;;
40170;SDS011;37650;52.790;18.268;2022-11-15T10:49:15;59.90;;;35.60;;
40170;SDS011;37650;52.790;18.268;2022-11-15T10:52:43;66.00;;;39.50;;
40170;SDS011;37650;52.790;18.268;2022-11-15T10:56:08;51.40;;;33.30;;
40170;SDS011;37650;52.790;18.268;2022-11-15T10:59:37;52.90;;;35.80;;
40170;SDS011;37650;52.790;18.268;2022-11-15T11:06:20;61.00;;;38.30;;
40170;SDS011;37650;52.790;18.268;2022-11-15T11:09:42;63.20;;;37.90;;
40170;SDS011;37650;52.790;18.268;2022-11-15T11:13:22;60.30;;;35.10;;
40170;SDS011;37650;52.790;18.268;2022-11-15T11:16:47;57.20;;;33.90;;
40170;SDS011;37650;52.790;18.268;2022-11-15T11:25:02;46.90;;;32.30;;
40170;SDS011;37650;52.790;18.268;2022-11-15T11:35:14;58.80;;;33.30;;
40170;SDS011;37650;52.790;18.268;2022-11-15T11:38:46;51.20;;;30.70;;
40170;SDS011;37650;52.790;18.268;2022-11-15T11:43:21;50.40;;;34.40;;
40170;SDS011;37650;52.790;18.268;2022-11-15T11:46:30;51.10;;;31.60;;
40170;SDS011;37650;52.790;18.268;2022-11-15T11:50:21;56.60;;;35.20;;
40170;SDS011;37650;52.790;18.268;2022-11-15T12:04:42;57.20;;;36.60;;
40170;SDS011;37650;52.790;18.268;2022-11-15T12:15:35;45.40;;;29.30;;
40170;SDS011;37650;52.790;18.268;2022-11-15T12:19:03;49.10;;;31.70;;
40170;SDS011;37650;52.790;18.268;2022-11-15T12:22:33;48.40;;;31.60;;
40170;SDS011;37650;52.790;18.268;2022-11-15T12:29:46;58.10;;;36.20;;
40170;SDS011;37650;52.790;18.268;2022-11-15T12:33:34;56.40;;;36.10;;
40170;SDS011;37650;52.790;18.268;2022-11-15T12:36:58;55.30;;;37.50;;
40170;SDS011;37650;52.790;18.268;2022-11-15T12:43:43;61.40;;;35.90;;
40170;SDS011;37650;52.790;18.268;2022-11-15T12:57:42;51.90;;;34.60;;
40170;SDS011;37650;52.790;18.268;2022-11-15T13:01:06;56.30;;;34.70;;
40170;SDS011;37650;52.790;18.268;2022-11-15T13:04:28;60.60;;;38.00;;
40170;SDS011;37650;52.790;18.268;2022-11-15T13:07:57;60.60;;;38.30;;
40170;SDS011;37650;52.790;18.268;2022-11-15T13:18:37;78.50;;;51.20;;
40170;SDS011;37650;52.790;18.268;2022-11-15T13:22:00;77.10;;;58.00;;
40170;SDS011;37650;52.790;18.268;2022-11-15T13:29:24;77.70;;;54.70;;
40170;SDS011;37650;52.790;18.268;2022-11-15T13:32:46;55.80;;;40.60;;
40170;SDS011;37650;52.790;18.268;2022-11-15T13:36:30;50.50;;;34.10;;
40170;SDS011;37650;52.790;18.268;2022-11-15T13:39:57;57.10;;;42.20;;
40170;SDS011;37650;52.790;18.268;2022-11-15T13:43:41;52.30;;;33.90;;
40170;SDS011;37650;52.790;18.268;2022-11-15T13:47:06;55.30;;;35.40;;
40170;SDS011;37650;52.790;18.268;2022-11-15T13:50:36;63.10;;;47.60;;
40170;SDS011;37650;52.790;18.268;2022-11-15T13:54:07;59.50;;;41.20;;
40170;SDS011;37650;52.790;18.268;2022-11-15T13:57:44;56.70;;;36.80;;
40170;SDS011;37650;52.790;18.268;2022-11-15T14:01:11;59.00;;;37.10;;
40170;SDS011;37650;52.790;18.268;2022-11-15T14:04:38;53.80;;;37.90;;
40170;SDS011;37650;52.790;18.268;2022-11-15T14:08:21;46.10;;;31.50;;
40170;SDS011;37650;52.790;18.268;2022-11-15T14:11:54;103.30;;;81.40;;
40170;SDS011;37650;52.790;18.268;2022-11-15T14:15:35;75.30;;;63.20;;
40170;SDS011;37650;52.790;18.268;2022-11-15T14:18:58;63.00;;;41.40;;
40170;SDS011;37650;52.790;18.268;2022-11-15T14:26:10;82.70;;;53.40;;
40170;SDS011;37650;52.790;18.268;2022-11-15T14:29:52;52.90;;;35.50;;
40170;SDS011;37650;52.790;18.268;2022-11-15T14:36:50;57.40;;;41.30;;
40170;SDS011;37650;52.790;18.268;2022-11-15T14:40:13;73.80;;;46.60;;
40170;SDS011;37650;52.790;18.268;2022-11-15T14:43:36;64.60;;;40.30;;
40170;SDS011;37650;52.790;18.268;2022-11-15T14:46:57;53.10;;;36.00;;
40170;SDS011;37650;52.790;18.268;2022-11-15T14:50:19;59.60;;;34.60;;
40170;SDS011;37650;52.790;18.268;2022-11-15T14:53:42;55.30;;;35.10;;
40170;SDS011;37650;52.790;18.268;2022-11-15T14:57:05;51.80;;;33.00;;
40170;SDS011;37650;52.790;18.268;2022-11-15T15:00:26;51.50;;;32.60;;
40170;SDS011;37650;52.790;18.268;2022-11-15T15:03:47;43.90;;;27.90;;
40170;SDS011;37650;52.790;18.268;2022-11-15T15:07:09;45.90;;;28.80;;
40170;SDS011;37650;52.790;18.268;2022-11-15T15:10:34;51.50;;;32.20;;
40170;SDS011;37650;52.790;18.268;2022-11-15T15:13:59;50.40;;;32.20;;
40170;SDS011;37650;52.790;18.268;2022-11-15T15:17:23;50.20;;;31.20;;
40170;SDS011;37650;52.790;18.268;2022-11-15T15:20:44;49.60;;;30.50;;
40170;SDS011;37650;52.790;18.268;2022-11-15T15:24:14;53.20;;;32.10;;
40170;SDS011;37650;52.790;18.268;2022-11-15T15:27:35;48.10;;;30.90;;
40170;SDS011;37650;52.790;18.268;2022-11-15T15:30:56;48.10;;;31.20;;
40170;SDS011;37650;52.790;18.268;2022-11-15T15:34:17;60.40;;;36.50;;
40170;SDS011;37650;52.790;18.268;2022-11-15T15:37:38;63.70;;;39.30;;
40170;SDS011;37650;52.790;18.268;2022-11-15T15:40:59;56.90;;;34.50;;
40170;SDS011;37650;52.790;18.268;2022-11-15T15:44:22;51.60;;;30.90;;
40170;SDS011;37650;52.790;18.268;2022-11-15T15:47:44;54.50;;;34.30;;
40170;SDS011;37650;52.790;18.268;2022-11-15T15:54:27;50.00;;;31.50;;
40170;SDS011;37650;52.790;18.268;2022-11-15T15:57:49;45.30;;;29.00;;
40170;SDS011;37650;52.790;18.268;2022-11-15T16:01:11;46.00;;;31.60;;
40170;SDS011;37650;52.790;18.268;2022-11-15T16:04:32;44.70;;;28.70;;
40170;SDS011;37650;52.790;18.268;2022-11-15T16:07:53;43.30;;;28.70;;
40170;SDS011;37650;52.790;18.268;2022-11-15T16:11:15;46.20;;;30.30;;
40170;SDS011;37650;52.790;18.268;2022-11-15T16:14:36;44.30;;;27.90;;
40170;SDS011;37650;52.790;18.268;2022-11-15T16:17:59;40.80;;;27.60;;
40170;SDS011;37650;52.790;18.268;2022-11-15T16:21:21;46.20;;;29.40;;
40170;SDS011;37650;52.790;18.268;2022-11-15T16:24:43;49.80;;;29.60;;
40170;SDS011;37650;52.790;18.268;2022-11-15T16:28:04;64.40;;;40.00;;
40170;SDS011;37650;52.790;18.268;2022-11-15T16:31:26;41.50;;;29.10;;
40170;SDS011;37650;52.790;18.268;2022-11-15T16:34:47;39.50;;;28.30;;
40170;SDS011;37650;52.790;18.268;2022-11-15T16:38:14;57.50;;;33.30;;
40170;SDS011;37650;52.790;18.268;2022-11-15T16:41:38;43.90;;;27.70;;
40170;SDS011;37650;52.790;18.268;2022-11-15T16:44:59;42.40;;;28.30;;
40170;SDS011;37650;52.790;18.268;2022-11-15T16:48:24;42.60;;;28.70;;
40170;SDS011;37650;52.790;18.268;2022-11-15T16:51:47;49.50;;;31.40;;
40170;SDS011;37650;52.790;18.268;2022-11-15T16:55:10;55.00;;;34.20;;
40170;SDS011;37650;52.790;18.268;2022-11-15T16:58:31;41.40;;;26.50;;
40170;SDS011;37650;52.790;18.268;2022-11-15T17:01:53;44.80;;;28.30;;
40170;SDS011;37650;52.790;18.268;2022-11-15T17:05:16;42.60;;;28.50;;
40170;SDS011;37650;52.790;18.268;2022-11-15T17:08:39;51.20;;;32.10;;
40170;SDS011;37650;52.790;18.268;2022-11-15T17:12:01;49.40;;;31.60;;
40170;SDS011;37650;52.790;18.268;2022-11-15T17:15:25;51.50;;;32.60;;
40170;SDS011;37650;52.790;18.268;2022-11-15T17:18:49;62.40;;;39.80;;
40170;SDS011;37650;52.790;18.268;2022-11-15T17:22:12;64.40;;;42.20;;
40170;SDS011;37650;52.790;18.268;2022-11-15T17:25:34;46.10;;;29.60;;
40170;SDS011;37650;52.790;18.268;2022-11-15T17:28:56;74.70;;;44.40;;
40170;SDS011;37650;52.790;18.268;2022-11-15T17:32:21;50.20;;;34.10;;
40170;SDS011;37650;52.790;18.268;2022-11-15T17:35:45;56.30;;;37.90;;
40170;SDS011;37650;52.790;18.268;2022-11-15T17:42:30;46.30;;;29.00;;
40170;SDS011;37650;52.790;18.268;2022-11-15T17:45:52;57.90;;;38.90;;
40170;SDS011;37650;52.790;18.268;2022-11-15T17:49:13;39.50;;;24.30;;
40170;SDS011;37650;52.790;18.268;2022-11-15T17:52:35;39.60;;;26.90;;
40170;SDS011;37650;52.790;18.268;2022-11-15T17:56:01;39.10;;;25.10;;
40170;SDS011;37650;52.790;18.268;2022-11-15T17:59:24;34.90;;;23.00;;
40170;SDS011;37650;52.790;18.268;2022-11-15T18:02:45;49.20;;;29.50;;
40170;SDS011;37650;52.790;18.268;2022-11-15T18:06:07;39.00;;;25.20;;
40170;SDS011;37650;52.790;18.268;2022-11-15T18:09:32;46.30;;;29.20;;
40170;SDS011;37650;52.790;18.268;2022-11-15T18:12:53;44.20;;;28.00;;
40170;SDS011;37650;52.790;18.268;2022-11-15T18:16:18;39.00;;;24.80;;
40170;SDS011;37650;52.790;18.268;2022-11-15T18:19:41;37.30;;;22.00;;
40170;SDS011;37650;52.790;18.268;2022-11-15T18:23:02;34.40;;;21.80;;
40170;SDS011;37650;52.790;18.268;2022-11-15T18:26:25;38.50;;;23.60;;
40170;SDS011;37650;52.790;18.268;2022-11-15T18:29:48;37.70;;;24.40;;
40170;SDS011;37650;52.790;18.268;2022-11-15T18:36:32;45.60;;;25.00;;
40170;SDS011;37650;52.790;18.268;2022-11-15T18:39:53;43.70;;;25.70;;
40170;SDS011;37650;52.790;18.268;2022-11-15T18:43:16;43.20;;;27.60;;
40170;SDS011;37650;52.790;18.268;2022-11-15T18:46:38;41.50;;;26.70;;
40170;SDS011;37650;52.790;18.268;2022-11-15T18:50:01;38.60;;;24.50;;
40170;SDS011;37650;52.790;18.268;2022-11-15T18:53:22;48.90;;;30.30;;
40170;SDS011;37650;52.790;18.268;2022-11-15T18:56:44;47.80;;;33.60;;
40170;SDS011;37650;52.790;18.268;2022-11-15T19:00:07;44.30;;;31.10;;
40170;SDS011;37650;52.790;18.268;2022-11-15T19:03:32;50.30;;;31.10;;
40170;SDS011;37650;52.790;18.268;2022-11-15T19:06:58;49.00;;;30.70;;
40170;SDS011;37650;52.790;18.268;2022-11-15T19:10:22;55.50;;;34.50;;
40170;SDS011;37650;52.790;18.268;2022-11-15T19:13:46;47.70;;;29.60;;
40170;SDS011;37650;52.790;18.268;2022-11-15T19:17:09;48.20;;;28.60;;
40170;SDS011;37650;52.790;18.268;2022-11-15T19:20:31;48.50;;;29.30;;
40170;SDS011;37650;52.790;18.268;2022-11-15T19:23:57;43.70;;;26.70;;
40170;SDS011;37650;52.790;18.268;2022-11-15T19:27:19;40.90;;;25.00;;
40170;SDS011;37650;52.790;18.268;2022-11-15T19:30:41;49.10;;;28.00;;
40170;SDS011;37650;52.790;18.268;2022-11-15T19:34:03;45.10;;;27.30;;
40170;SDS011;37650;52.790;18.268;2022-11-15T19:37:26;48.70;;;28.00;;
40170;SDS011;37650;52.790;18.268;2022-11-15T19:40:48;39.70;;;26.30;;
40170;SDS011;37650;52.790;18.268;2022-11-15T19:44:11;41.70;;;25.60;;
40170;SDS011;37650;52.790;18.268;2022-11-15T19:47:35;48.60;;;30.10;;
40170;SDS011;37650;52.790;18.268;2022-11-15T19:51:01;46.90;;;27.70;;
40170;SDS011;37650;52.790;18.268;2022-11-15T19:54:26;45.60;;;30.60;;
40170;SDS011;37650;52.790;18.268;2022-11-15T19:57:48;45.60;;;28.50;;
40170;SDS011;37650;52.790;18.268;2022-11-15T20:01:18;48.00;;;28.80;;
40170;SDS011;37650;52.790;18.268;2022-11-15T20:04:45;48.10;;;27.40;;
40170;SDS011;37650;52.790;18.268;2022-11-15T20:08:12;49.60;;;27.80;;
40170;SDS011;37650;52.790;18.268;2022-11-15T20:15:04;53.50;;;31.60;;
40170;SDS011;37650;52.790;18.268;2022-11-15T20:18:27;49.00;;;29.00;;
40170;SDS011;37650;52.790;18.268;2022-11-15T20:21:51;48.20;;;27.60;;
40170;SDS011;37650;52.790;18.268;2022-11-15T20:25:14;54.00;;;32.20;;
40170;SDS011;37650;52.790;18.268;2022-11-15T20:28:38;52.40;;;30.60;;
40170;SDS011;37650;52.790;18.268;2022-11-15T20:32:00;46.70;;;28.40;;
40170;SDS011;37650;52.790;18.268;2022-11-15T20:35:21;51.50;;;29.40;;
40170;SDS011;37650;52.790;18.268;2022-11-15T20:38:43;43.90;;;26.20;;
40170;SDS011;37650;52.790;18.268;2022-11-15T20:42:05;44.20;;;26.70;;
40170;SDS011;37650;52.790;18.268;2022-11-15T20:45:29;40.70;;;23.50;;
40170;SDS011;37650;52.790;18.268;2022-11-15T20:48:51;45.20;;;25.90;;
40170;SDS011;37650;52.790;18.268;2022-11-15T20:52:13;42.00;;;24.50;;
40170;SDS011;37650;52.790;18.268;2022-11-15T20:55:44;43.70;;;26.50;;
40170;SDS011;37650;52.790;18.268;2022-11-15T20:59:13;35.00;;;21.30;;
40170;SDS011;37650;52.790;18.268;2022-11-15T21:02:35;40.70;;;25.50;;
40170;SDS011;37650;52.790;18.268;2022-11-15T21:05:56;38.10;;;24.00;;
40170;SDS011;37650;52.790;18.268;2022-11-15T21:09:17;47.10;;;28.40;;
40170;SDS011;37650;52.790;18.268;2022-11-15T21:12:57;48.40;;;29.50;;
40170;SDS011;37650;52.790;18.268;2022-11-15T21:16:18;45.90;;;27.40;;
40170;SDS011;37650;52.790;18.268;2022-11-15T21:19:39;48.00;;;28.60;;
40170;SDS011;37650;52.790;18.268;2022-11-15T21:23:00;43.60;;;26.50;;
40170;SDS011;37650;52.790;18.268;2022-11-15T21:26:22;43.60;;;27.80;;
40170;SDS011;37650;52.790;18.268;2022-11-15T21:29:43;45.70;;;26.90;;
40170;SDS011;37650;52.790;18.268;2022-11-15T21:33:10;43.50;;;24.60;;
40170;SDS011;37650;52.790;18.268;2022-11-15T21:36:31;40.80;;;24.90;;
40170;SDS011;37650;52.790;18.268;2022-11-15T21:39:52;42.30;;;25.50;;
40170;SDS011;37650;52.790;18.268;2022-11-15T21:43:13;41.40;;;23.80;;
40170;SDS011;37650;52.790;18.268;2022-11-15T21:46:35;38.00;;;22.40;;
40170;SDS011;37650;52.790;18.268;2022-11-15T21:49:57;44.70;;;23.20;;
40170;SDS011;37650;52.790;18.268;2022-11-15T21:53:18;42.00;;;24.70;;
40170;SDS011;37650;52.790;18.268;2022-11-15T21:56:39;42.90;;;25.70;;
40170;SDS011;37650;52.790;18.268;2022-11-15T22:00:03;43.30;;;24.70;;
40170;SDS011;37650;52.790;18.268;2022-11-15T22:03:44;36.70;;;22.70;;
40170;SDS011;37650;52.790;18.268;2022-11-15T22:07:06;37.30;;;22.90;;
40170;SDS011;37650;52.790;18.268;2022-11-15T22:10:27;38.00;;;21.30;;
40170;SDS011;37650;52.790;18.268;2022-11-15T22:13:48;35.40;;;20.90;;
40170;SDS011;37650;52.790;18.268;2022-11-15T22:17:09;36.20;;;21.40;;
40170;SDS011;37650;52.790;18.268;2022-11-15T22:20:30;33.70;;;20.10;;
40170;SDS011;37650;52.790;18.268;2022-11-15T22:23:52;30.50;;;19.20;;
40170;SDS011;37650;52.790;18.268;2022-11-15T22:27:13;30.40;;;19.60;;
40170;SDS011;37650;52.790;18.268;2022-11-15T22:30:34;25.40;;;16.40;;
40170;SDS011;37650;52.790;18.268;2022-11-15T22:33:56;28.30;;;17.80;;
40170;SDS011;37650;52.790;18.268;2022-11-15T22:37:17;27.80;;;17.70;;
40170;SDS011;37650;52.790;18.268;2022-11-15T22:40:39;27.00;;;17.50;;
40170;SDS011;37650;52.790;18.268;2022-11-15T22:44:00;25.70;;;17.20;;
40170;SDS011;37650;52.790;18.268;2022-11-15T22:47:21;24.70;;;15.20;;